sensor_id;sensor_type;location;lat;lon;timestamp;temperature;humidity
23685;DHT22;12020;51.384;6.908;2022-12-07T00:01:26;6.10;99.90
23685;DHT22;12020;51.384;6.908;2022-12-07T00:03:56;6.10;99.90
23685;DHT22;12020;51.384;6.908;2022-12-07T00:06:26;6.10;99.90
23685;DHT22;12020;51.384;6.908;2022-12-07T00:08:54;6.10;99.90
23685;DHT22;12020;51.384;6.908;2022-12-07T00:11:22;6.20;99.90
23685;DHT22;12020;51.384;6.908;2022-12-07T00:13:54;6.20;99.90
23685;DHT22;12020;51.384;6.908;2022-12-07T00:16:24;6.20;99.90
23685;DHT22;12020;51.384;6.908;2022-12-07T00:18:50;6.20;99.90
23685;DHT22;12020;51.384;6.908;2022-12-07T00:21:23;6.20;99.90
23685;DHT22;12020;51.384;6.908;2022-12-07T00:23:51;6.10;99.90
23685;DHT22;12020;51.384;6.908;2022-12-07T00:26:20;6.20;99.90
23685;DHT22;12020;51.384;6.908;2022-12-07T00:28:49;6.10;99.90
23685;DHT22;12020;51.384;6.908;2022-12-07T00:31:16;6.10;99.90
23685;DHT22;12020;51.384;6.908;2022-12-07T00:33:44;6.10;99.90
23685;DHT22;12020;51.384;6.908;2022-12-07T00:36:19;6.10;99.90
23685;DHT22;12020;51.384;6.908;2022-12-07T00:38:46;6.10;99.90
23685;DHT22;12020;51.384;6.908;2022-12-07T00:41:17;6.10;99.90
23685;DHT22;12020;51.384;6.908;2022-12-07T00:43:46;6.00;99.90
23685;DHT22;12020;51.384;6.908;2022-12-07T00:46:15;6.00;99.90
23685;DHT22;12020;51.384;6.908;2022-12-07T00:48:41;6.00;99.90
23685;DHT22;12020;51.384;6.908;2022-12-07T00:51:09;6.00;99.90
23685;DHT22;12020;51.384;6.908;2022-12-07T00:53:36;6.00;99.90
23685;DHT22;12020;51.384;6.908;2022-12-07T00:56:24;6.00;99.90
23685;DHT22;12020;51.384;6.908;2022-12-07T00:58:58;6.10;99.90
23685;DHT22;12020;51.384;6.908;2022-12-07T01:01:26;6.00;99.90
23685;DHT22;12020;51.384;6.908;2022-12-07T01:03:55;6.10;99.90
23685;DHT22;12020;51.384;6.908;2022-12-07T01:06:22;6.00;99.90
23685;DHT22;12020;51.384;6.908;2022-12-07T01:08:49;6.00;99.90
23685;DHT22;12020;51.384;6.908;2022-12-07T01:11:18;6.00;99.90
23685;DHT22;12020;51.384;6.908;2022-12-07T01:13:45;6.10;99.90
23685;DHT22;12020;51.384;6.908;2022-12-07T01:16:15;6.10;99.90
23685;DHT22;12020;51.384;6.908;2022-12-07T01:18:49;6.10;99.90
23685;DHT22;12020;51.384;6.908;2022-12-07T01:21:19;6.10;99.90
23685;DHT22;12020;51.384;6.908;2022-12-07T01:23:46;6.10;99.90
23685;DHT22;12020;51.384;6.908;2022-12-07T01:26:16;6.10;99.90
23685;DHT22;12020;51.384;6.908;2022-12-07T01:28:43;6.10;99.90
23685;DHT22;12020;51.384;6.908;2022-12-07T01:31:12;6.10;99.90
23685;DHT22;12020;51.384;6.908;2022-12-07T01:33:42;6.10;99.90
23685;DHT22;12020;51.384;6.908;2022-12-07T01:36:15;6.10;99.90
23685;DHT22;12020;51.384;6.908;2022-12-07T01:38:42;6.10;99.90
23685;DHT22;12020;51.384;6.908;2022-12-07T01:41:08;6.10;99.90
23685;DHT22;12020;51.384;6.908;2022-12-07T01:43:34;6.10;99.90
23685;DHT22;12020;51.384;6.908;2022-12-07T01:46:02;6.10;99.90
23685;DHT22;12020;51.384;6.908;2022-12-07T01:48:40;6.10;99.90
23685;DHT22;12020;51.384;6.908;2022-12-07T01:51:10;6.10;99.90
23685;DHT22;12020;51.384;6.908;2022-12-07T01:53:43;6.10;99.90
23685;DHT22;12020;51.384;6.908;2022-12-07T01:56:17;6.00;99.90
23685;DHT22;12020;51.384;6.908;2022-12-07T01:58:45;6.10;99.90
23685;DHT22;12020;51.384;6.908;2022-12-07T02:01:12;6.10;99.90
23685;DHT22;12020;51.384;6.908;2022-12-07T02:03:42;6.10;99.90
23685;DHT22;12020;51.384;6.908;2022-12-07T02:06:11;6.10;99.90
23685;DHT22;12020;51.384;6.908;2022-12-07T02:08:38;6.10;99.90
23685;DHT22;12020;51.384;6.908;2022-12-07T02:11:05;6.10;99.90
23685;DHT22;12020;51.384;6.908;2022-12-07T02:13:35;6.10;99.90
23685;DHT22;12020;51.384;6.908;2022-12-07T02:16:13;6.10;99.90
23685;DHT22;12020;51.384;6.908;2022-12-07T02:18:55;6.10;99.90
23685;DHT22;12020;51.384;6.908;2022-12-07T02:29:54;6.00;99.90
23685;DHT22;12020;51.384;6.908;2022-12-07T02:35:35;6.00;99.90
23685;DHT22;12020;51.384;6.908;2022-12-07T02:40:55;6.00;99.90
23685;DHT22;12020;51.384;6.908;2022-12-07T02:43:31;6.00;99.90
23685;DHT22;12020;51.384;6.908;2022-12-07T02:46:07;6.00;99.90
23685;DHT22;12020;51.384;6.908;2022-12-07T02:48:37;6.00;99.90
23685;DHT22;12020;51.384;6.908;2022-12-07T02:51:05;5.90;99.90
23685;DHT22;12020;51.384;6.908;2022-12-07T02:56:35;5.90;99.90
23685;DHT22;12020;51.384;6.908;2022-12-07T03:02:25;6.00;99.90
23685;DHT22;12020;51.384;6.908;2022-12-07T03:10:59;6.00;99.90
23685;DHT22;12020;51.384;6.908;2022-12-07T03:16:20;5.90;99.90
23685;DHT22;12020;51.384;6.908;2022-12-07T03:18:58;6.00;99.90
23685;DHT22;12020;51.384;6.908;2022-12-07T03:21:33;5.90;99.90
23685;DHT22;12020;51.384;6.908;2022-12-07T03:24:08;6.00;99.90
23685;DHT22;12020;51.384;6.908;2022-12-07T03:26:38;5.90;99.90
23685;DHT22;12020;51.384;6.908;2022-12-07T03:29:17;5.90;99.90
23685;DHT22;12020;51.384;6.908;2022-12-07T03:31:48;5.80;99.90
23685;DHT22;12020;51.384;6.908;2022-12-07T03:34:26;5.90;99.90
23685;DHT22;12020;51.384;6.908;2022-12-07T03:37:06;5.90;99.90
23685;DHT22;12020;51.384;6.908;2022-12-07T03:39:49;5.90;99.90
23685;DHT22;12020;51.384;6.908;2022-12-07T03:42:20;5.90;99.90
23685;DHT22;12020;51.384;6.908;2022-12-07T03:44:47;5.90;99.90
23685;DHT22;12020;51.384;6.908;2022-12-07T03:47:27;5.90;99.90
23685;DHT22;12020;51.384;6.908;2022-12-07T03:52:39;5.80;99.90
23685;DHT22;12020;51.384;6.908;2022-12-07T03:55:18;5.80;99.90
23685;DHT22;12020;51.384;6.908;2022-12-07T03:57:49;5.80;99.90
23685;DHT22;12020;51.384;6.908;2022-12-07T04:00:18;5.80;99.90
23685;DHT22;12020;51.384;6.908;2022-12-07T04:02:55;5.80;99.90
23685;DHT22;12020;51.384;6.908;2022-12-07T04:05:21;5.70;99.90
23685;DHT22;12020;51.384;6.908;2022-12-07T04:07:48;5.70;99.90
23685;DHT22;12020;51.384;6.908;2022-12-07T04:10:14;5.70;99.90
23685;DHT22;12020;51.384;6.908;2022-12-07T04:12:42;5.80;99.90
23685;DHT22;12020;51.384;6.908;2022-12-07T04:15:11;5.80;99.90
23685;DHT22;12020;51.384;6.908;2022-12-07T04:17:38;5.80;99.90
23685;DHT22;12020;51.384;6.908;2022-12-07T04:20:06;5.90;99.90
23685;DHT22;12020;51.384;6.908;2022-12-07T04:22:33;5.80;99.90
23685;DHT22;12020;51.384;6.908;2022-12-07T04:24:59;5.90;99.90
23685;DHT22;12020;51.384;6.908;2022-12-07T04:27:28;5.80;99.90
23685;DHT22;12020;51.384;6.908;2022-12-07T04:29:55;5.80;99.90
23685;DHT22;12020;51.384;6.908;2022-12-07T04:32:22;5.90;99.90
23685;DHT22;12020;51.384;6.908;2022-12-07T04:34:50;5.80;99.90
23685;DHT22;12020;51.384;6.908;2022-12-07T04:37:16;5.80;99.90
23685;DHT22;12020;51.384;6.908;2022-12-07T04:39:45;5.80;99.90
23685;DHT22;12020;51.384;6.908;2022-12-07T04:42:11;5.70;99.90
23685;DHT22;12020;51.384;6.908;2022-12-07T04:44:39;5.80;99.90
23685;DHT22;12020;51.384;6.908;2022-12-07T04:47:05;5.80;99.90
23685;DHT22;12020;51.384;6.908;2022-12-07T04:49:33;5.80;99.90
23685;DHT22;12020;51.384;6.908;2022-12-07T04:51:59;5.80;99.90
23685;DHT22;12020;51.384;6.908;2022-12-07T04:54:25;5.80;99.90
23685;DHT22;12020;51.384;6.908;2022-12-07T04:56:51;5.80;99.90
23685;DHT22;12020;51.384;6.908;2022-12-07T04:59:20;5.70;99.90
23685;DHT22;12020;51.384;6.908;2022-12-07T05:01:47;5.70;99.90
23685;DHT22;12020;51.384;6.908;2022-12-07T05:04:13;5.70;99.90
23685;DHT22;12020;51.384;6.908;2022-12-07T05:06:41;5.80;99.90
23685;DHT22;12020;51.384;6.908;2022-12-07T05:09:07;5.70;99.90
23685;DHT22;12020;51.384;6.908;2022-12-07T05:11:34;5.70;99.90
23685;DHT22;12020;51.384;6.908;2022-12-07T05:14:06;5.70;99.90
23685;DHT22;12020;51.384;6.908;2022-12-07T05:16:32;5.60;99.90
23685;DHT22;12020;51.384;6.908;2022-12-07T05:18:58;5.60;99.90
23685;DHT22;12020;51.384;6.908;2022-12-07T05:21:24;5.60;99.90
23685;DHT22;12020;51.384;6.908;2022-12-07T05:23:51;5.80;99.90
23685;DHT22;12020;51.384;6.908;2022-12-07T05:26:19;5.70;99.90
23685;DHT22;12020;51.384;6.908;2022-12-07T05:28:49;5.60;99.90
23685;DHT22;12020;51.384;6.908;2022-12-07T05:31:16;5.60;99.90
23685;DHT22;12020;51.384;6.908;2022-12-07T05:33:43;5.60;99.90
23685;DHT22;12020;51.384;6.908;2022-12-07T05:36:09;5.60;99.90
23685;DHT22;12020;51.384;6.908;2022-12-07T05:38:35;5.60;99.90
23685;DHT22;12020;51.384;6.908;2022-12-07T05:41:03;5.60;99.90
23685;DHT22;12020;51.384;6.908;2022-12-07T05:43:30;5.60;99.90
23685;DHT22;12020;51.384;6.908;2022-12-07T05:45:57;5.60;99.90
23685;DHT22;12020;51.384;6.908;2022-12-07T05:48:25;5.50;99.90
23685;DHT22;12020;51.384;6.908;2022-12-07T05:50:51;5.50;99.90
23685;DHT22;12020;51.384;6.908;2022-12-07T05:53:19;5.60;99.90
23685;DHT22;12020;51.384;6.908;2022-12-07T05:55:45;5.50;99.90
23685;DHT22;12020;51.384;6.908;2022-12-07T05:58:12;5.60;99.90
23685;DHT22;12020;51.384;6.908;2022-12-07T06:00:57;5.60;99.90
23685;DHT22;12020;51.384;6.908;2022-12-07T06:03:24;5.50;99.90
23685;DHT22;12020;51.384;6.908;2022-12-07T06:05:52;5.50;99.90
23685;DHT22;12020;51.384;6.908;2022-12-07T06:08:26;5.50;99.90
23685;DHT22;12020;51.384;6.908;2022-12-07T06:10:58;5.50;99.90
23685;DHT22;12020;51.384;6.908;2022-12-07T06:13:44;5.60;99.90
23685;DHT22;12020;51.384;6.908;2022-12-07T06:16:12;5.70;99.90
23685;DHT22;12020;51.384;6.908;2022-12-07T06:18:38;5.70;99.90
23685;DHT22;12020;51.384;6.908;2022-12-07T06:21:05;5.70;99.90
23685;DHT22;12020;51.384;6.908;2022-12-07T06:23:30;5.60;99.90
23685;DHT22;12020;51.384;6.908;2022-12-07T06:25:56;5.70;99.90
23685;DHT22;12020;51.384;6.908;2022-12-07T06:28:23;5.70;99.90
23685;DHT22;12020;51.384;6.908;2022-12-07T06:31:00;5.60;99.90
23685;DHT22;12020;51.384;6.908;2022-12-07T06:33:27;5.60;99.90
23685;DHT22;12020;51.384;6.908;2022-12-07T06:35:53;5.50;99.90
23685;DHT22;12020;51.384;6.908;2022-12-07T06:38:19;5.50;99.90
23685;DHT22;12020;51.384;6.908;2022-12-07T06:40:45;5.50;99.90
23685;DHT22;12020;51.384;6.908;2022-12-07T06:43:11;5.50;99.90
23685;DHT22;12020;51.384;6.908;2022-12-07T06:45:38;5.40;99.90
23685;DHT22;12020;51.384;6.908;2022-12-07T06:48:04;5.40;99.90
23685;DHT22;12020;51.384;6.908;2022-12-07T06:50:30;5.40;99.90
23685;DHT22;12020;51.384;6.908;2022-12-07T06:52:56;5.50;99.90
23685;DHT22;12020;51.384;6.908;2022-12-07T06:55:22;5.40;99.90
23685;DHT22;12020;51.384;6.908;2022-12-07T06:57:48;5.40;99.90
23685;DHT22;12020;51.384;6.908;2022-12-07T07:00:14;5.50;99.90
23685;DHT22;12020;51.384;6.908;2022-12-07T07:02:40;5.50;99.90
23685;DHT22;12020;51.384;6.908;2022-12-07T07:05:06;5.50;99.90
23685;DHT22;12020;51.384;6.908;2022-12-07T07:07:32;5.50;99.90
23685;DHT22;12020;51.384;6.908;2022-12-07T07:09:58;5.50;99.90
23685;DHT22;12020;51.384;6.908;2022-12-07T07:12:24;5.50;99.90
23685;DHT22;12020;51.384;6.908;2022-12-07T07:14:50;5.40;99.90
23685;DHT22;12020;51.384;6.908;2022-12-07T07:17:16;5.50;99.90
23685;DHT22;12020;51.384;6.908;2022-12-07T07:19:42;5.40;99.90
23685;DHT22;12020;51.384;6.908;2022-12-07T07:22:08;5.40;99.90
23685;DHT22;12020;51.384;6.908;2022-12-07T07:24:35;5.40;99.90
23685;DHT22;12020;51.384;6.908;2022-12-07T07:27:00;5.40;99.90
23685;DHT22;12020;51.384;6.908;2022-12-07T07:29:26;5.40;99.90
23685;DHT22;12020;51.384;6.908;2022-12-07T07:31:52;5.30;99.90
23685;DHT22;12020;51.384;6.908;2022-12-07T07:34:18;5.30;99.90
23685;DHT22;12020;51.384;6.908;2022-12-07T07:36:44;5.30;99.90
23685;DHT22;12020;51.384;6.908;2022-12-07T07:39:10;5.30;99.90
23685;DHT22;12020;51.384;6.908;2022-12-07T07:41:38;5.30;99.90
23685;DHT22;12020;51.384;6.908;2022-12-07T07:44:04;5.30;99.90
23685;DHT22;12020;51.384;6.908;2022-12-07T07:46:30;5.30;99.90
23685;DHT22;12020;51.384;6.908;2022-12-07T07:48:58;5.20;99.90
23685;DHT22;12020;51.384;6.908;2022-12-07T07:51:24;5.20;99.90
23685;DHT22;12020;51.384;6.908;2022-12-07T07:53:50;5.10;99.90
23685;DHT22;12020;51.384;6.908;2022-12-07T07:56:16;5.20;99.90
23685;DHT22;12020;51.384;6.908;2022-12-07T07:58:42;5.20;99.90
23685;DHT22;12020;51.384;6.908;2022-12-07T08:01:09;5.20;99.90
23685;DHT22;12020;51.384;6.908;2022-12-07T08:03:35;5.20;99.90
23685;DHT22;12020;51.384;6.908;2022-12-07T08:06:04;5.20;99.90
23685;DHT22;12020;51.384;6.908;2022-12-07T08:08:31;5.30;99.90
23685;DHT22;12020;51.384;6.908;2022-12-07T08:10:58;5.30;99.90
23685;DHT22;12020;51.384;6.908;2022-12-07T08:13:26;5.30;99.90
23685;DHT22;12020;51.384;6.908;2022-12-07T08:15:53;5.30;99.90
23685;DHT22;12020;51.384;6.908;2022-12-07T08:18:18;5.30;99.90
23685;DHT22;12020;51.384;6.908;2022-12-07T08:20:44;5.40;99.90
23685;DHT22;12020;51.384;6.908;2022-12-07T08:23:11;5.40;99.90
23685;DHT22;12020;51.384;6.908;2022-12-07T08:25:38;5.40;99.90
23685;DHT22;12020;51.384;6.908;2022-12-07T08:28:04;5.40;99.90
23685;DHT22;12020;51.384;6.908;2022-12-07T08:30:34;5.50;99.90
23685;DHT22;12020;51.384;6.908;2022-12-07T08:33:00;5.40;99.90
23685;DHT22;12020;51.384;6.908;2022-12-07T08:35:27;5.40;99.90
23685;DHT22;12020;51.384;6.908;2022-12-07T08:37:53;5.40;99.90
23685;DHT22;12020;51.384;6.908;2022-12-07T08:40:18;5.40;99.90
23685;DHT22;12020;51.384;6.908;2022-12-07T08:42:49;5.40;99.90
23685;DHT22;12020;51.384;6.908;2022-12-07T08:45:17;5.40;99.90
23685;DHT22;12020;51.384;6.908;2022-12-07T08:50:16;5.30;99.90
23685;DHT22;12020;51.384;6.908;2022-12-07T08:52:43;5.30;99.90
23685;DHT22;12020;51.384;6.908;2022-12-07T08:55:12;5.30;99.90
23685;DHT22;12020;51.384;6.908;2022-12-07T08:57:39;5.30;99.90
23685;DHT22;12020;51.384;6.908;2022-12-07T09:00:06;5.30;99.90
23685;DHT22;12020;51.384;6.908;2022-12-07T09:02:32;5.30;99.90
23685;DHT22;12020;51.384;6.908;2022-12-07T09:04:58;5.40;99.90
23685;DHT22;12020;51.384;6.908;2022-12-07T09:07:25;5.50;99.90
23685;DHT22;12020;51.384;6.908;2022-12-07T09:09:51;5.50;99.90
23685;DHT22;12020;51.384;6.908;2022-12-07T09:12:17;5.50;99.90
23685;DHT22;12020;51.384;6.908;2022-12-07T09:14:43;5.60;99.90
23685;DHT22;12020;51.384;6.908;2022-12-07T09:17:11;5.60;99.90
23685;DHT22;12020;51.384;6.908;2022-12-07T09:19:38;5.50;99.90
23685;DHT22;12020;51.384;6.908;2022-12-07T09:22:04;5.60;99.90
23685;DHT22;12020;51.384;6.908;2022-12-07T09:24:31;5.60;99.90
23685;DHT22;12020;51.384;6.908;2022-12-07T09:26:57;5.70;99.90
23685;DHT22;12020;51.384;6.908;2022-12-07T09:29:24;5.60;99.90
23685;DHT22;12020;51.384;6.908;2022-12-07T09:31:51;5.70;99.90
23685;DHT22;12020;51.384;6.908;2022-12-07T09:34:17;5.80;99.90
23685;DHT22;12020;51.384;6.908;2022-12-07T09:36:44;5.80;99.90
23685;DHT22;12020;51.384;6.908;2022-12-07T09:39:10;6.00;99.90
23685;DHT22;12020;51.384;6.908;2022-12-07T09:41:41;5.90;99.90
23685;DHT22;12020;51.384;6.908;2022-12-07T09:44:14;5.90;99.90
23685;DHT22;12020;51.384;6.908;2022-12-07T09:46:43;6.00;99.90
23685;DHT22;12020;51.384;6.908;2022-12-07T09:49:12;6.00;99.90
23685;DHT22;12020;51.384;6.908;2022-12-07T09:51:38;6.00;99.90
23685;DHT22;12020;51.384;6.908;2022-12-07T09:54:04;6.00;99.90
23685;DHT22;12020;51.384;6.908;2022-12-07T09:56:31;6.00;99.90
23685;DHT22;12020;51.384;6.908;2022-12-07T09:59:01;6.00;99.90
23685;DHT22;12020;51.384;6.908;2022-12-07T10:01:31;6.10;99.90
23685;DHT22;12020;51.384;6.908;2022-12-07T10:04:13;6.20;99.90
23685;DHT22;12020;51.384;6.908;2022-12-07T10:06:41;6.20;99.90
23685;DHT22;12020;51.384;6.908;2022-12-07T10:09:16;6.30;99.90
23685;DHT22;12020;51.384;6.908;2022-12-07T10:12:07;6.30;99.90
23685;DHT22;12020;51.384;6.908;2022-12-07T10:15:00;6.30;99.90
23685;DHT22;12020;51.384;6.908;2022-12-07T10:17:41;6.40;99.90
23685;DHT22;12020;51.384;6.908;2022-12-07T10:20:26;6.40;99.90
23685;DHT22;12020;51.384;6.908;2022-12-07T10:23:08;6.40;99.90
23685;DHT22;12020;51.384;6.908;2022-12-07T10:25:39;6.40;99.90
23685;DHT22;12020;51.384;6.908;2022-12-07T10:28:13;6.30;99.90
23685;DHT22;12020;51.384;6.908;2022-12-07T10:31:01;6.40;99.90
23685;DHT22;12020;51.384;6.908;2022-12-07T10:33:35;6.50;99.90
23685;DHT22;12020;51.384;6.908;2022-12-07T10:36:19;6.50;99.90
23685;DHT22;12020;51.384;6.908;2022-12-07T10:38:49;6.60;99.90
23685;DHT22;12020;51.384;6.908;2022-12-07T10:41:15;6.70;99.90
23685;DHT22;12020;51.384;6.908;2022-12-07T10:43:55;6.80;99.90
23685;DHT22;12020;51.384;6.908;2022-12-07T11:00:01;6.70;99.90
23685;DHT22;12020;51.384;6.908;2022-12-07T11:05:26;6.70;99.90
23685;DHT22;12020;51.384;6.908;2022-12-07T11:08:00;6.70;99.90
23685;DHT22;12020;51.384;6.908;2022-12-07T11:24:19;6.90;99.90
23685;DHT22;12020;51.384;6.908;2022-12-07T11:37:35;6.90;99.90
23685;DHT22;12020;51.384;6.908;2022-12-07T11:40:27;6.90;99.90
23685;DHT22;12020;51.384;6.908;2022-12-07T11:43:11;7.00;99.90
23685;DHT22;12020;51.384;6.908;2022-12-07T11:45:42;7.00;99.90
23685;DHT22;12020;51.384;6.908;2022-12-07T11:48:20;7.00;99.90
23685;DHT22;12020;51.384;6.908;2022-12-07T11:50:59;7.00;99.90
23685;DHT22;12020;51.384;6.908;2022-12-07T11:53:36;7.00;99.90
23685;DHT22;12020;51.384;6.908;2022-12-07T11:56:10;7.00;99.90
23685;DHT22;12020;51.384;6.908;2022-12-07T11:58:57;7.00;99.90
23685;DHT22;12020;51.384;6.908;2022-12-07T12:06:39;7.10;99.90
23685;DHT22;12020;51.384;6.908;2022-12-07T12:09:29;7.10;99.90
23685;DHT22;12020;51.384;6.908;2022-12-07T12:25:44;7.10;99.90
23685;DHT22;12020;51.384;6.908;2022-12-07T12:28:41;7.10;99.90
23685;DHT22;12020;51.384;6.908;2022-12-07T12:33:52;7.10;99.90
23685;DHT22;12020;51.384;6.908;2022-12-07T12:36:54;7.10;99.90
23685;DHT22;12020;51.384;6.908;2022-12-07T12:39:15;7.10;99.90
23685;DHT22;12020;51.384;6.908;2022-12-07T12:51:44;7.10;99.90
23685;DHT22;12020;51.384;6.908;2022-12-07T12:59:34;7.10;99.90
23685;DHT22;12020;51.384;6.908;2022-12-07T13:10:35;7.10;99.90
23685;DHT22;12020;51.384;6.908;2022-12-07T13:20:59;7.00;99.90
23685;DHT22;12020;51.384;6.908;2022-12-07T13:34:27;7.00;99.90
23685;DHT22;12020;51.384;6.908;2022-12-07T13:36:51;7.00;99.90
23685;DHT22;12020;51.384;6.908;2022-12-07T13:39:19;7.00;99.90
23685;DHT22;12020;51.384;6.908;2022-12-07T13:41:53;7.00;99.90
23685;DHT22;12020;51.384;6.908;2022-12-07T13:44:24;7.00;99.90
23685;DHT22;12020;51.384;6.908;2022-12-07T13:47:06;7.00;99.90
23685;DHT22;12020;51.384;6.908;2022-12-07T13:49:50;7.00;99.90
23685;DHT22;12020;51.384;6.908;2022-12-07T13:54:55;7.00;99.90
23685;DHT22;12020;51.384;6.908;2022-12-07T13:57:24;7.00;99.90
23685;DHT22;12020;51.384;6.908;2022-12-07T13:59:51;7.00;99.90
23685;DHT22;12020;51.384;6.908;2022-12-07T14:02:24;7.00;99.90
23685;DHT22;12020;51.384;6.908;2022-12-07T14:04:51;6.90;99.90
23685;DHT22;12020;51.384;6.908;2022-12-07T14:07:27;6.90;99.90
23685;DHT22;12020;51.384;6.908;2022-12-07T14:10:03;6.90;99.90
23685;DHT22;12020;51.384;6.908;2022-12-07T14:12:30;6.90;99.90
23685;DHT22;12020;51.384;6.908;2022-12-07T14:14:58;6.90;99.90
23685;DHT22;12020;51.384;6.908;2022-12-07T14:17:26;6.80;99.90
23685;DHT22;12020;51.384;6.908;2022-12-07T14:19:59;6.80;99.90
23685;DHT22;12020;51.384;6.908;2022-12-07T14:22:31;6.80;99.90
23685;DHT22;12020;51.384;6.908;2022-12-07T14:25:00;6.80;99.90
23685;DHT22;12020;51.384;6.908;2022-12-07T14:27:31;6.70;99.90
23685;DHT22;12020;51.384;6.908;2022-12-07T14:29:59;6.70;99.90
23685;DHT22;12020;51.384;6.908;2022-12-07T14:32:27;6.70;99.90
23685;DHT22;12020;51.384;6.908;2022-12-07T14:34:58;6.70;99.90
23685;DHT22;12020;51.384;6.908;2022-12-07T14:37:25;6.60;99.90
23685;DHT22;12020;51.384;6.908;2022-12-07T14:39:53;6.70;99.90
23685;DHT22;12020;51.384;6.908;2022-12-07T14:42:19;6.60;99.90
23685;DHT22;12020;51.384;6.908;2022-12-07T14:44:46;6.60;99.90
23685;DHT22;12020;51.384;6.908;2022-12-07T14:47:12;6.50;99.90
23685;DHT22;12020;51.384;6.908;2022-12-07T14:49:38;6.50;99.90
23685;DHT22;12020;51.384;6.908;2022-12-07T14:52:05;6.50;99.90
23685;DHT22;12020;51.384;6.908;2022-12-07T14:54:32;6.40;99.90
23685;DHT22;12020;51.384;6.908;2022-12-07T14:56:59;6.40;99.90
23685;DHT22;12020;51.384;6.908;2022-12-07T14:59:25;6.40;99.90
23685;DHT22;12020;51.384;6.908;2022-12-07T15:01:51;6.30;99.90
23685;DHT22;12020;51.384;6.908;2022-12-07T15:04:18;6.30;99.90
23685;DHT22;12020;51.384;6.908;2022-12-07T15:06:58;6.40;99.90
23685;DHT22;12020;51.384;6.908;2022-12-07T15:09:24;6.20;99.90
23685;DHT22;12020;51.384;6.908;2022-12-07T15:11:50;6.20;99.90
23685;DHT22;12020;51.384;6.908;2022-12-07T15:14:17;6.20;99.90
23685;DHT22;12020;51.384;6.908;2022-12-07T15:16:43;6.10;99.90
23685;DHT22;12020;51.384;6.908;2022-12-07T15:19:14;6.10;99.90
23685;DHT22;12020;51.384;6.908;2022-12-07T15:21:41;6.00;99.90
23685;DHT22;12020;51.384;6.908;2022-12-07T15:24:10;6.00;99.90
23685;DHT22;12020;51.384;6.908;2022-12-07T15:26:37;6.00;99.90
23685;DHT22;12020;51.384;6.908;2022-12-07T15:29:02;5.90;99.90
23685;DHT22;12020;51.384;6.908;2022-12-07T15:31:29;5.90;99.90
23685;DHT22;12020;51.384;6.908;2022-12-07T15:33:54;5.80;99.90
23685;DHT22;12020;51.384;6.908;2022-12-07T15:36:23;5.80;99.90
23685;DHT22;12020;51.384;6.908;2022-12-07T15:38:50;5.70;99.90
23685;DHT22;12020;51.384;6.908;2022-12-07T15:41:16;5.70;99.90
23685;DHT22;12020;51.384;6.908;2022-12-07T15:43:41;5.70;99.90
23685;DHT22;12020;51.384;6.908;2022-12-07T15:46:33;5.70;99.90
23685;DHT22;12020;51.384;6.908;2022-12-07T15:49:00;5.70;99.90
23685;DHT22;12020;51.384;6.908;2022-12-07T15:51:26;5.70;99.90
23685;DHT22;12020;51.384;6.908;2022-12-07T15:53:53;5.70;99.90
23685;DHT22;12020;51.384;6.908;2022-12-07T15:56:19;5.70;99.90
23685;DHT22;12020;51.384;6.908;2022-12-07T15:58:46;5.70;99.90
23685;DHT22;12020;51.384;6.908;2022-12-07T16:01:16;5.70;99.90
23685;DHT22;12020;51.384;6.908;2022-12-07T16:03:43;5.70;99.90
23685;DHT22;12020;51.384;6.908;2022-12-07T16:06:10;5.70;99.90
23685;DHT22;12020;51.384;6.908;2022-12-07T16:08:36;5.60;99.90
23685;DHT22;12020;51.384;6.908;2022-12-07T16:11:06;5.60;99.90
23685;DHT22;12020;51.384;6.908;2022-12-07T16:13:32;5.60;99.90
23685;DHT22;12020;51.384;6.908;2022-12-07T16:15:58;5.60;99.90
23685;DHT22;12020;51.384;6.908;2022-12-07T16:18:24;5.70;99.90
23685;DHT22;12020;51.384;6.908;2022-12-07T16:20:50;5.70;99.90
23685;DHT22;12020;51.384;6.908;2022-12-07T16:23:16;5.70;99.90
23685;DHT22;12020;51.384;6.908;2022-12-07T16:25:42;5.70;99.90
23685;DHT22;12020;51.384;6.908;2022-12-07T16:28:08;5.70;99.90
23685;DHT22;12020;51.384;6.908;2022-12-07T16:30:34;5.70;99.90
23685;DHT22;12020;51.384;6.908;2022-12-07T16:33:00;5.70;99.90
23685;DHT22;12020;51.384;6.908;2022-12-07T16:35:26;5.70;99.90
23685;DHT22;12020;51.384;6.908;2022-12-07T16:37:51;5.70;99.90
23685;DHT22;12020;51.384;6.908;2022-12-07T16:40:18;5.70;99.90
23685;DHT22;12020;51.384;6.908;2022-12-07T16:42:44;5.70;99.90
23685;DHT22;12020;51.384;6.908;2022-12-07T16:45:11;5.80;99.90
23685;DHT22;12020;51.384;6.908;2022-12-07T16:47:40;5.80;99.90
23685;DHT22;12020;51.384;6.908;2022-12-07T16:50:07;5.80;99.90
23685;DHT22;12020;51.384;6.908;2022-12-07T16:52:33;5.80;99.90
23685;DHT22;12020;51.384;6.908;2022-12-07T16:55:00;5.90;99.90
23685;DHT22;12020;51.384;6.908;2022-12-07T16:57:27;5.80;99.90
23685;DHT22;12020;51.384;6.908;2022-12-07T16:59:55;5.80;99.90
23685;DHT22;12020;51.384;6.908;2022-12-07T17:02:21;5.90;99.90
23685;DHT22;12020;51.384;6.908;2022-12-07T17:04:47;5.90;99.90
23685;DHT22;12020;51.384;6.908;2022-12-07T17:07:13;5.90;99.90
23685;DHT22;12020;51.384;6.908;2022-12-07T17:09:39;5.90;99.90
23685;DHT22;12020;51.384;6.908;2022-12-07T17:12:05;5.90;99.90
23685;DHT22;12020;51.384;6.908;2022-12-07T17:14:32;5.90;99.90
23685;DHT22;12020;51.384;6.908;2022-12-07T17:17:16;5.90;99.90
23685;DHT22;12020;51.384;6.908;2022-12-07T17:19:42;5.90;99.90
23685;DHT22;12020;51.384;6.908;2022-12-07T17:22:08;5.90;99.90
23685;DHT22;12020;51.384;6.908;2022-12-07T17:24:37;5.90;99.90
23685;DHT22;12020;51.384;6.908;2022-12-07T17:27:03;5.80;99.90
23685;DHT22;12020;51.384;6.908;2022-12-07T17:29:29;5.80;99.90
23685;DHT22;12020;51.384;6.908;2022-12-07T17:31:55;5.80;99.90
23685;DHT22;12020;51.384;6.908;2022-12-07T17:34:20;5.70;99.90
23685;DHT22;12020;51.384;6.908;2022-12-07T17:36:46;5.80;99.90
23685;DHT22;12020;51.384;6.908;2022-12-07T17:39:15;5.80;99.90
23685;DHT22;12020;51.384;6.908;2022-12-07T17:41:42;5.70;99.90
23685;DHT22;12020;51.384;6.908;2022-12-07T17:44:27;5.80;99.90
23685;DHT22;12020;51.384;6.908;2022-12-07T17:46:53;5.90;99.90
23685;DHT22;12020;51.384;6.908;2022-12-07T17:49:25;5.80;99.90
23685;DHT22;12020;51.384;6.908;2022-12-07T17:51:51;5.90;99.90
23685;DHT22;12020;51.384;6.908;2022-12-07T17:54:35;5.90;99.90
23685;DHT22;12020;51.384;6.908;2022-12-07T17:57:02;5.90;99.90
23685;DHT22;12020;51.384;6.908;2022-12-07T17:59:28;5.90;99.90
23685;DHT22;12020;51.384;6.908;2022-12-07T18:01:54;5.90;99.90
23685;DHT22;12020;51.384;6.908;2022-12-07T18:04:20;5.90;99.90
23685;DHT22;12020;51.384;6.908;2022-12-07T18:06:45;5.90;99.90
23685;DHT22;12020;51.384;6.908;2022-12-07T18:09:11;5.90;99.90
23685;DHT22;12020;51.384;6.908;2022-12-07T18:11:37;5.90;99.90
23685;DHT22;12020;51.384;6.908;2022-12-07T18:14:04;5.90;99.90
23685;DHT22;12020;51.384;6.908;2022-12-07T18:16:31;5.90;99.90
23685;DHT22;12020;51.384;6.908;2022-12-07T18:19:00;6.00;99.90
23685;DHT22;12020;51.384;6.908;2022-12-07T18:21:28;5.90;99.90